Time;durP1;ratioP1;P1;durP2;ratioP2;P2;SDS_P1;SDS_P2;PMS_P1;PMS_P2;Temp;Humidity;BMP_temperature;BMP_pressure;BME280_temperature;BME280_humidity;BME280_pressure;Samples;Min_cycle;Max_cycle;Signal;HPM_P1;HPM_P2
2023/11/01 00:03:32;;;;;;;14.52;9.63;;;;;;;;;;12635508;23;20051;-67
2023/11/01 00:08:28;;;;;;;19.20;9.27;;;;;;;;;;12635927;23;20029;-70
2023/11/01 00:13:24;;;;;;;9.55;8.50;;;;;;;;;;12635157;23;20184;-69
2023/11/01 00:18:21;;;;;;;12.27;8.68;;;;;;;;;;12635821;23;20024;-70
2023/11/01 00:23:18;;;;;;;16.65;9.77;;;;;;;;;;12628975;23;20025;-69
2023/11/01 00:28:14;;;;;;;12.13;9.77;;;;;;;;;;12609759;23;20056;-70
2023/11/01 00:33:10;;;;;;;9.70;8.45;;;;;;;;;;12634787;23;20028;-70
2023/11/01 00:38:07;;;;;;;10.27;8.77;;;;;;;;;;12636056;23;20028;-71
2023/11/01 00:43:04;;;;;;;12.23;9.27;;;;;;;;;;12609264;23;20020;-70
2023/11/01 00:48:00;;;;;;;9.38;8.57;;;;;;;;;;12629700;23;20035;-70
2023/11/01 00:52:57;;;;;;;8.80;7.97;;;;;;;;;;12635123;23;20573;-70
2023/11/01 00:57:53;;;;;;;10.63;8.63;;;;;;;;;;12634790;23;20037;-70
2023/11/01 01:02:50;;;;;;;9.85;8.85;;;;;;;;;;12635194;23;20399;-70
2023/11/01 01:07:46;;;;;;;9.13;8.23;;;;;;;;;;12635442;23;20112;-71
2023/11/01 01:12:43;;;;;;;10.35;8.50;;;;;;;;;;12634168;23;20409;-71
2023/11/01 01:17:39;;;;;;;9.07;8.25;;;;;;;;;;12634696;23;20044;-71
2023/11/01 01:22:36;;;;;;;9.77;8.70;;;;;;;;;;12633791;23;20032;-71
2023/11/01 01:27:32;;;;;;;9.50;8.70;;;;;;;;;;12625794;23;20029;-71
2023/11/01 01:32:34;;;;;;;11.93;8.73;;;;;;;;;;12633965;23;20484;-70
2023/11/01 01:37:31;;;;;;;11.25;8.77;;;;;;;;;;12633956;23;20026;-70
2023/11/01 01:42:27;;;;;;;9.38;8.40;;;;;;;;;;12636934;23;20034;-70
2023/11/01 01:47:23;;;;;;;8.77;8.00;;;;;;;;;;12632552;23;20115;-70
2023/11/01 01:52:20;;;;;;;13.07;7.93;;;;;;;;;;12638455;23;20029;-70
2023/11/01 01:57:21;;;;;;;9.40;8.45;;;;;;;;;;12637357;23;20057;-70
2023/11/01 02:02:19;;;;;;;8.77;8.02;;;;;;;;;;12637924;23;20467;-70
2023/11/01 02:07:15;;;;;;;8.43;7.72;;;;;;;;;;12633036;23;20083;-70
2023/11/01 02:12:12;;;;;;;7.78;7.05;;;;;;;;;;12636188;23;20036;-70
2023/11/01 02:17:08;;;;;;;7.97;7.28;;;;;;;;;;12637520;23;20020;-70
2023/11/01 02:22:04;;;;;;;7.88;7.07;;;;;;;;;;12611435;23;20111;-68
2023/11/01 02:27:02;;;;;;;10.35;7.35;;;;;;;;;;12637893;23;20025;-70
2023/11/01 02:31:59;;;;;;;7.82;7.13;;;;;;;;;;12631620;23;20538;-70
2023/11/01 02:36:56;;;;;;;12.18;7.28;;;;;;;;;;12637461;23;20031;-70
2023/11/01 02:41:52;;;;;;;14.07;6.80;;;;;;;;;;12636749;23;20047;-70
2023/11/01 02:46:49;;;;;;;8.05;6.80;;;;;;;;;;12631661;23;20075;-70
2023/11/01 02:51:45;;;;;;;9.15;6.50;;;;;;;;;;12609790;23;20031;-69
2023/11/01 02:56:41;;;;;;;10.20;6.68;;;;;;;;;;12637802;23;20478;-72
2023/11/01 03:01:38;;;;;;;7.20;6.53;;;;;;;;;;12636583;23;20035;-71
2023/11/01 03:06:34;;;;;;;7.95;6.18;;;;;;;;;;12636256;23;20064;-72
2023/11/01 03:11:31;;;;;;;10.98;7.40;;;;;;;;;;12636889;23;20339;-69
2023/11/01 03:16:27;;;;;;;8.52;7.13;;;;;;;;;;12636525;23;20071;-70
2023/11/01 03:21:23;;;;;;;12.68;7.53;;;;;;;;;;12636643;23;20096;-70
2023/11/01 03:26:20;;;;;;;8.45;7.25;;;;;;;;;;12635738;23;20462;-71
2023/11/01 03:31:18;;;;;;;9.18;6.95;;;;;;;;;;12636029;23;20347;-69
2023/11/01 03:36:15;;;;;;;18.75;8.35;;;;;;;;;;12635697;23;20470;-70
2023/11/01 03:41:11;;;;;;;12.15;7.60;;;;;;;;;;12629622;23;20047;-71
2023/11/01 03:46:08;;;;;;;12.70;6.28;;;;;;;;;;12636731;23;20035;-70
2023/11/01 03:51:04;;;;;;;10.48;6.18;;;;;;;;;;12630984;23;20034;-69
2023/11/01 03:56:02;;;;;;;6.35;5.72;;;;;;;;;;12634267;23;20020;-69
2023/11/01 04:00:59;;;;;;;7.47;6.13;;;;;;;;;;12636312;23;20086;-69
2023/11/01 04:05:55;;;;;;;12.68;5.72;;;;;;;;;;12634066;23;20047;-69
2023/11/01 04:10:52;;;;;;;6.20;5.60;;;;;;;;;;12634723;23;20035;-69
2023/11/01 04:15:48;;;;;;;10.02;6.05;;;;;;;;;;12634976;23;20020;-69
2023/11/01 04:20:44;;;;;;;8.15;5.47;;;;;;;;;;12634474;23;20087;-71
2023/11/01 04:25:41;;;;;;;8.93;5.72;;;;;;;;;;12634222;23;20458;-71
2023/11/01 04:30:38;;;;;;;8.60;5.72;;;;;;;;;;12608485;23;20558;-70
2023/11/01 04:35:35;;;;;;;8.65;5.65;;;;;;;;;;12634518;23;20645;-72
2023/11/01 04:40:31;;;;;;;7.97;5.50;;;;;;;;;;12601486;23;20103;-72
2023/11/01 04:45:28;;;;;;;6.30;5.68;;;;;;;;;;12633250;23;20024;-73
2023/11/01 04:50:24;;;;;;;6.97;5.63;;;;;;;;;;12630543;23;20043;-73
2023/11/01 04:55:21;;;;;;;5.70;5.20;;;;;;;;;;12630012;23;20093;-75
2023/11/01 05:00:18;;;;;;;8.75;6.00;;;;;;;;;;12598071;23;20079;-74
2023/11/01 05:05:15;;;;;;;6.07;5.47;;;;;;;;;;12614685;23;20020;-73
2023/11/01 05:10:12;;;;;;;12.02;6.10;;;;;;;;;;12645538;23;20029;-75
2023/11/01 05:15:09;;;;;;;6.63;5.97;;;;;;;;;;12646312;23;20724;-75
2023/11/01 05:20:07;;;;;;;8.23;5.72;;;;;;;;;;12647847;23;20021;-74
2023/11/01 05:25:13;;;;;;;5.90;5.40;;;;;;;;;;12636936;23;20672;-74
2023/11/01 05:30:14;;;;;;;5.40;5.00;;;;;;;;;;12609248;23;20028;-74
2023/11/01 05:35:12;;;;;;;6.00;5.47;;;;;;;;;;12609910;23;20083;-74
2023/11/01 05:40:15;;;;;;;6.20;5.57;;;;;;;;;;12635384;23;20418;-74
2023/11/01 05:45:15;;;;;;;7.20;5.75;;;;;;;;;;12634661;23;20025;-73
2023/11/01 05:50:12;;;;;;;8.13;5.50;;;;;;;;;;12637273;23;20029;-73
2023/11/01 05:55:08;;;;;;;12.23;5.63;;;;;;;;;;12636196;23;20028;-75
2023/11/01 06:17:07;;;;;;;8.77;6.75;;;;;;;;;;12696207;23;20404;-73
2023/11/01 06:22:04;;;;;;;7.43;6.80;;;;;;;;;;12695283;22;20012;-73
2023/11/01 06:27:00;;;;;;;7.78;6.70;;;;;;;;;;12669331;23;20400;-74
2023/11/01 06:31:56;;;;;;;9.95;6.32;;;;;;;;;;12695146;22;20020;-73
2023/11/01 06:36:53;;;;;;;8.80;6.63;;;;;;;;;;12699243;23;20031;-73
2023/11/01 06:41:49;;;;;;;11.93;8.20;;;;;;;;;;12698851;22;20032;-74
2023/11/01 06:46:45;;;;;;;8.20;7.40;;;;;;;;;;12672514;23;20027;-73
2023/11/01 06:51:42;;;;;;;8.95;8.00;;;;;;;;;;12695353;22;20024;-73
2023/11/01 06:56:44;;;;;;;8.45;7.57;;;;;;;;;;12695490;23;20078;-73
2023/11/01 07:01:41;;;;;;;16.48;7.57;;;;;;;;;;12697768;22;20024;-74
2023/11/01 07:06:38;;;;;;;16.85;7.95;;;;;;;;;;12698595;23;20110;-73
2023/11/01 07:11:34;;;;;;;11.00;8.52;;;;;;;;;;12696884;22;20070;-73
2023/11/01 07:16:31;;;;;;;14.73;8.48;;;;;;;;;;12694279;22;20032;-73
2023/11/01 07:21:27;;;;;;;12.57;8.45;;;;;;;;;;12697821;22;20171;-74
2023/11/01 07:26:23;;;;;;;13.82;8.05;;;;;;;;;;12698349;23;20031;-73
2023/11/01 07:31:20;;;;;;;9.65;8.68;;;;;;;;;;12697511;22;20677;-73
2023/11/01 07:36:16;;;;;;;9.65;8.55;;;;;;;;;;12698321;23;20039;-73
2023/11/01 07:41:14;;;;;;;11.43;9.88;;;;;;;;;;12697610;22;20024;-73
2023/11/01 07:46:11;;;;;;;14.10;9.32;;;;;;;;;;12697488;23;20030;-73
2023/11/01 07:51:07;;;;;;;14.90;9.60;;;;;;;;;;12698003;22;20024;-73
2023/11/01 07:56:04;;;;;;;10.15;9.15;;;;;;;;;;12698411;23;20409;-73
2023/11/01 08:01:00;;;;;;;10.65;9.63;;;;;;;;;;12669739;22;20099;-73
2023/11/01 08:05:57;;;;;;;10.52;9.05;;;;;;;;;;12697700;23;20052;-73
2023/11/01 08:10:53;;;;;;;11.98;10.73;;;;;;;;;;12697224;22;20023;-74
2023/11/01 08:15:49;;;;;;;12.13;9.52;;;;;;;;;;12697143;23;20020;-73
2023/11/01 08:20:46;;;;;;;13.90;10.15;;;;;;;;;;12692032;22;20012;-74
2023/11/01 08:25:42;;;;;;;13.05;9.85;;;;;;;;;;12697720;23;20028;-73
2023/11/01 08:30:38;;;;;;;16.00;9.55;;;;;;;;;;12696602;22;20028;-72
2023/11/01 08:35:35;;;;;;;15.57;10.07;;;;;;;;;;12695948;23;20046;-72
2023/11/01 08:40:32;;;;;;;10.48;9.38;;;;;;;;;;12696713;22;20027;-72
2023/11/01 08:45:28;;;;;;;20.90;10.13;;;;;;;;;;12697622;23;20020;-72
2023/11/01 08:50:24;;;;;;;14.25;10.20;;;;;;;;;;12695738;22;20027;-72
2023/11/01 08:55:22;;;;;;;11.63;9.20;;;;;;;;;;12697638;23;20104;-72
2023/11/01 09:00:18;;;;;;;14.77;10.57;;;;;;;;;;12696497;22;20027;-72
2023/11/01 09:05:16;;;;;;;11.63;10.48;;;;;;;;;;12696370;23;20020;-73
2023/11/01 09:10:13;;;;;;;20.65;10.35;;;;;;;;;;12695809;22;20020;-72
2023/11/01 09:15:09;;;;;;;14.88;9.90;;;;;;;;;;12694992;23;20022;-72
2023/11/01 09:20:06;;;;;;;14.15;10.75;;;;;;;;;;12697126;22;20024;-71
2023/11/01 09:25:03;;;;;;;11.82;10.52;;;;;;;;;;12691456;22;20027;-72
2023/11/01 09:30:04;;;;;;;14.38;11.15;;;;;;;;;;12697733;23;20027;-72
2023/11/01 09:35:01;;;;;;;12.77;10.82;;;;;;;;;;12693836;22;20048;-73
2023/11/01 09:39:57;;;;;;;12.32;11.13;;;;;;;;;;12696189;23;20051;-72
2023/11/01 09:44:56;;;;;;;19.75;11.68;;;;;;;;;;12695928;22;20024;-73
2023/11/01 09:49:53;;;;;;;14.55;11.43;;;;;;;;;;12695447;23;20355;-72
2023/11/01 09:54:50;;;;;;;13.00;10.90;;;;;;;;;;12695280;22;20335;-73
2023/11/01 09:59:46;;;;;;;18.38;11.07;;;;;;;;;;12695753;23;20079;-72
2023/11/01 10:04:43;;;;;;;16.02;12.23;;;;;;;;;;12699197;22;20031;-72
2023/11/01 10:09:40;;;;;;;16.23;11.23;;;;;;;;;;12699557;23;20032;-72
2023/11/01 10:14:36;;;;;;;13.13;11.82;;;;;;;;;;12699419;22;20024;-73
2023/11/01 10:19:33;;;;;;;12.93;11.15;;;;;;;;;;12699397;23;20361;-72
2023/11/01 10:24:29;;;;;;;13.35;11.73;;;;;;;;;;12697980;22;20135;-72
2023/11/01 10:29:29;;;;;;;16.05;11.65;;;;;;;;;;12698436;23;20377;-73
2023/11/01 10:34:28;;;;;;;12.57;11.38;;;;;;;;;;12691930;22;20175;-73
2023/11/01 10:39:24;;;;;;;13.25;11.85;;;;;;;;;;12698661;23;20401;-74
2023/11/01 10:44:21;;;;;;;12.20;10.93;;;;;;;;;;12698080;22;20028;-72
2023/11/01 10:49:18;;;;;;;15.15;11.60;;;;;;;;;;12696898;23;20016;-72
2023/11/01 10:54:15;;;;;;;13.18;11.65;;;;;;;;;;12698772;22;20093;-73
2023/11/01 10:59:21;;;;;;;13.45;11.05;;;;;;;;;;12698457;23;20038;-72
2023/11/01 11:04:24;;;;;;;13.65;10.73;;;;;;;;;;12670779;23;20031;-73
2023/11/01 11:09:22;;;;;;;11.27;9.98;;;;;;;;;;12697634;23;20031;-72
2023/11/01 11:14:39;;;;;;;14.55;11.40;;;;;;;;;;12697420;22;20024;-73
2023/11/01 11:19:55;;;;;;;12.43;10.30;;;;;;;;;;12671342;23;20059;-72
2023/11/01 11:24:55;;;;;;;12.73;11.20;;;;;;;;;;12697219;22;20331;-72
2023/11/01 11:29:52;;;;;;;11.20;10.02;;;;;;;;;;12696928;23;20123;-73
2023/11/01 11:34:48;;;;;;;18.08;10.32;;;;;;;;;;12697419;22;20114;-72
2023/11/01 11:40:02;;;;;;;11.88;9.82;;;;;;;;;;12697985;23;20358;-73
2023/11/01 11:45:02;;;;;;;10.38;9.38;;;;;;;;;;12697722;22;20051;-73
2023/11/01 11:50:07;;;;;;;12.25;10.82;;;;;;;;;;12697175;23;20058;-72
2023/11/01 11:55:04;;;;;;;12.48;10.63;;;;;;;;;;12695829;23;20020;-73
2023/11/01 12:00:12;;;;;;;15.65;10.32;;;;;;;;;;12693715;22;20401;-73
2023/11/01 12:05:09;;;;;;;15.65;10.30;;;;;;;;;;12697128;23;20307;-74
2023/11/01 12:10:13;;;;;;;13.27;11.77;;;;;;;;;;12696635;22;20024;-73
2023/11/01 12:15:13;;;;;;;12.10;10.77;;;;;;;;;;12696833;23;20024;-72
2023/11/01 12:20:09;;;;;;;12.13;10.90;;;;;;;;;;12696455;23;20504;-73
2023/11/01 12:25:08;;;;;;;10.95;9.95;;;;;;;;;;12697325;23;20020;-73
2023/11/01 12:30:05;;;;;;;12.50;10.88;;;;;;;;;;12697079;23;20454;-73
2023/11/01 12:35:04;;;;;;;12.15;11.05;;;;;;;;;;12693724;22;20385;-73
2023/11/01 12:40:11;;;;;;;10.65;9.75;;;;;;;;;;12670926;23;20520;-73
2023/11/01 12:45:08;;;;;;;11.05;9.90;;;;;;;;;;12695413;23;20093;-72
2023/11/01 12:50:05;;;;;;;10.85;9.73;;;;;;;;;;12696266;23;20016;-73
2023/11/01 12:55:03;;;;;;;10.50;9.35;;;;;;;;;;12696951;22;20020;-73
2023/11/01 12:59:59;;;;;;;8.70;7.72;;;;;;;;;;12692114;22;20020;-73
2023/11/01 13:05:00;;;;;;;8.73;7.13;;;;;;;;;;12696443;22;20024;-72
2023/11/01 13:09:57;;;;;;;9.48;7.18;;;;;;;;;;12697818;23;20100;-73
2023/11/01 13:14:57;;;;;;;7.80;7.10;;;;;;;;;;12697055;22;20091;-72
2023/11/01 13:19:53;;;;;;;7.60;6.90;;;;;;;;;;12671736;23;20496;-72
2023/11/01 13:24:53;;;;;;;9.48;7.18;;;;;;;;;;12697897;22;20020;-72
2023/11/01 13:29:50;;;;;;;7.60;6.95;;;;;;;;;;12691264;23;20024;-71
2023/11/01 13:34:48;;;;;;;8.55;7.85;;;;;;;;;;12695117;22;20020;-72
2023/11/01 13:39:45;;;;;;;7.15;6.55;;;;;;;;;;12693907;23;20028;-72
2023/11/01 13:44:41;;;;;;;7.90;7.10;;;;;;;;;;12699962;22;20035;-73
2023/11/01 13:49:39;;;;;;;8.23;7.53;;;;;;;;;;12700056;23;20028;-70
2023/11/01 13:54:36;;;;;;;8.98;8.05;;;;;;;;;;12702041;22;20048;-70
2023/11/01 13:59:32;;;;;;;9.02;8.15;;;;;;;;;;12695326;22;20473;-70
2023/11/01 14:04:29;;;;;;;8.48;7.70;;;;;;;;;;12699854;22;20078;-70
2023/11/01 14:09:26;;;;;;;9.23;8.35;;;;;;;;;;12701403;23;20020;-72
2023/11/01 14:14:22;;;;;;;7.97;7.20;;;;;;;;;;12699382;22;20020;-69
2023/11/01 14:19:20;;;;;;;8.60;7.53;;;;;;;;;;12699354;23;20027;-70
2023/11/01 14:24:17;;;;;;;8.65;7.85;;;;;;;;;;12670950;23;20055;-70
2023/11/01 14:29:15;;;;;;;10.10;8.45;;;;;;;;;;12698220;23;20024;-69
2023/11/01 14:34:12;;;;;;;9.60;8.65;;;;;;;;;;12696775;22;20111;-71
2023/11/01 14:39:09;;;;;;;9.45;7.68;;;;;;;;;;12667010;22;20024;-72
2023/11/01 14:44:06;;;;;;;7.90;7.18;;;;;;;;;;12672322;23;20047;-72
2023/11/01 14:49:07;;;;;;;9.15;8.20;;;;;;;;;;12696658;23;20491;-72
2023/11/01 14:54:04;;;;;;;9.10;8.02;;;;;;;;;;12698049;22;20023;-72
2023/11/01 14:59:00;;;;;;;9.60;8.27;;;;;;;;;;12697889;23;20032;-74
2023/11/01 15:03:57;;;;;;;11.25;8.32;;;;;;;;;;12670437;23;20489;-71
2023/11/01 15:08:53;;;;;;;10.07;8.52;;;;;;;;;;12698372;23;20025;-71
2023/11/01 15:13:50;;;;;;;9.98;6.95;;;;;;;;;;12697221;22;20476;-72
2023/11/01 15:18:46;;;;;;;9.02;8.23;;;;;;;;;;12698121;23;20492;-72
2023/11/01 15:23:43;;;;;;;8.93;8.02;;;;;;;;;;12666532;22;20086;-70
2023/11/01 15:28:39;;;;;;;11.60;7.60;;;;;;;;;;12695976;23;20024;-69
2023/11/01 15:33:36;;;;;;;8.77;7.95;;;;;;;;;;12697063;22;20048;-70
2023/11/01 15:38:32;;;;;;;11.48;7.22;;;;;;;;;;12697079;23;20441;-71
2023/11/01 15:43:29;;;;;;;9.95;7.30;;;;;;;;;;12669514;23;20031;-70
2023/11/01 15:48:25;;;;;;;9.25;6.95;;;;;;;;;;12695675;23;20389;-70
2023/11/01 15:53:25;;;;;;;9.98;7.40;;;;;;;;;;12668845;23;20020;-70
2023/11/01 15:58:21;;;;;;;9.07;7.47;;;;;;;;;;12695402;23;20365;-73
2023/11/01 16:03:17;;;;;;;7.50;6.80;;;;;;;;;;12695852;22;20020;-74
2023/11/01 16:08:14;;;;;;;11.35;7.32;;;;;;;;;;12695866;23;20024;-73
2023/11/01 16:13:10;;;;;;;8.00;6.72;;;;;;;;;;12695385;22;20024;-70
2023/11/01 16:18:07;;;;;;;9.68;6.95;;;;;;;;;;12668794;23;20046;-72
2023/11/01 16:23:03;;;;;;;10.45;7.40;;;;;;;;;;12695174;22;20094;-73
2023/11/01 16:28:00;;;;;;;9.75;6.97;;;;;;;;;;12695926;23;20070;-74
2023/11/01 16:32:57;;;;;;;10.85;6.90;;;;;;;;;;12692747;22;20024;-73
2023/11/01 16:37:55;;;;;;;11.60;7.25;;;;;;;;;;12694533;23;20024;-72
2023/11/01 16:42:52;;;;;;;11.73;8.57;;;;;;;;;;12688484;22;20039;-73
2023/11/01 16:47:48;;;;;;;12.77;7.93;;;;;;;;;;12689853;22;20099;-74
2023/11/01 16:52:45;;;;;;;8.60;7.60;;;;;;;;;;12691253;22;20510;-72
2023/11/01 16:57:41;;;;;;;9.40;7.28;;;;;;;;;;12667129;23;20039;-74
2023/11/01 17:02:37;;;;;;;8.02;7.00;;;;;;;;;;12694192;22;20035;-72
2023/11/01 17:07:45;;;;;;;10.77;7.90;;;;;;;;;;12692632;23;20077;-71
2023/11/01 17:12:42;;;;;;;11.70;7.78;;;;;;;;;;12689467;22;20735;-70
2023/11/01 17:17:40;;;;;;;8.20;7.07;;;;;;;;;;12691155;23;20028;-72
2023/11/01 17:22:36;;;;;;;11.70;7.53;;;;;;;;;;12689952;22;20518;-74
2023/11/01 17:27:36;;;;;;;11.23;7.20;;;;;;;;;;12691330;23;20028;-74
2023/11/01 17:32:32;;;;;;;10.20;8.15;;;;;;;;;;12688627;22;20047;-74
2023/11/01 17:37:28;;;;;;;14.80;10.15;;;;;;;;;;12688777;23;20477;-73
2023/11/01 17:42:28;;;;;;;15.90;8.30;;;;;;;;;;12678383;22;20050;-70
2023/11/01 17:47:28;;;;;;;12.23;8.10;;;;;;;;;;12675033;23;20028;-71
2023/11/01 17:52:28;;;;;;;11.18;7.35;;;;;;;;;;12677022;22;20062;-73
2023/11/01 17:57:24;;;;;;;11.63;7.28;;;;;;;;;;12687708;23;20087;-73
2023/11/01 18:02:27;;;;;;;8.73;7.40;;;;;;;;;;12687087;22;20096;-73
2023/11/01 18:07:24;;;;;;;8.77;7.72;;;;;;;;;;12689222;23;20090;-73
2023/11/01 18:12:21;;;;;;;10.63;7.63;;;;;;;;;;12688720;22;20035;-73
2023/11/01 18:17:17;;;;;;;9.05;7.63;;;;;;;;;;12690392;23;20362;-74
2023/11/01 18:22:32;;;;;;;9.73;7.88;;;;;;;;;;12692719;22;20020;-74
2023/11/01 18:27:28;;;;;;;14.98;7.90;;;;;;;;;;12698933;23;20024;-73
2023/11/01 18:32:25;;;;;;;12.50;8.48;;;;;;;;;;12698077;22;20031;-74
2023/11/01 18:37:21;;;;;;;9.55;7.20;;;;;;;;;;12698358;23;20032;-74
2023/11/01 18:42:24;;;;;;;11.25;7.85;;;;;;;;;;12697547;22;20074;-74
2023/11/01 18:47:23;;;;;;;11.23;8.02;;;;;;;;;;12697036;23;20020;-75
2023/11/01 18:52:20;;;;;;;11.05;8.52;;;;;;;;;;12693550;22;20500;-74
2023/11/01 18:57:20;;;;;;;16.80;8.48;;;;;;;;;;12698682;23;20358;-74
2023/11/01 19:02:36;;;;;;;17.15;8.32;;;;;;;;;;12691589;22;20107;-74
2023/11/01 19:07:37;;;;;;;8.90;7.80;;;;;;;;;;12693472;23;20070;-73
2023/11/01 19:12:34;;;;;;;11.18;7.28;;;;;;;;;;12695778;22;20535;-74
2023/11/01 19:17:34;;;;;;;11.60;7.88;;;;;;;;;;12696127;23;20071;-75
2023/11/01 19:22:31;;;;;;;15.45;7.80;;;;;;;;;;12698267;22;20036;-74
2023/11/01 19:27:27;;;;;;;10.35;7.47;;;;;;;;;;12695789;23;20028;-75
2023/11/01 19:32:24;;;;;;;11.88;7.65;;;;;;;;;;12697955;22;20027;-73
2023/11/01 19:37:21;;;;;;;12.90;8.02;;;;;;;;;;12690341;23;20027;-73
2023/11/01 19:42:17;;;;;;;12.85;8.02;;;;;;;;;;12697965;22;20032;-74
2023/11/01 19:47:13;;;;;;;11.85;7.78;;;;;;;;;;12694380;23;20039;-74
2023/11/01 19:52:10;;;;;;;12.52;7.97;;;;;;;;;;12696866;22;20032;-73
2023/11/01 19:57:08;;;;;;;8.70;7.50;;;;;;;;;;12697433;23;20028;-72
2023/11/01 20:02:08;;;;;;;10.88;6.88;;;;;;;;;;12691315;22;20024;-74
2023/11/01 20:07:04;;;;;;;9.40;6.88;;;;;;;;;;12696484;23;20126;-72
2023/11/01 20:12:01;;;;;;;13.02;7.80;;;;;;;;;;12696620;22;20074;-74
2023/11/01 20:16:57;;;;;;;12.30;7.18;;;;;;;;;;12696345;23;20417;-74
2023/11/01 20:21:53;;;;;;;7.20;6.43;;;;;;;;;;12695426;22;20051;-74
2023/11/01 20:26:50;;;;;;;16.88;12.80;;;;;;;;;;12690172;23;20026;-74
2023/11/01 20:31:47;;;;;;;18.38;6.85;;;;;;;;;;12694260;22;20020;-74
2023/11/01 20:36:44;;;;;;;13.85;6.88;;;;;;;;;;12696104;23;20031;-73
2023/11/01 20:41:40;;;;;;;9.70;6.28;;;;;;;;;;12668801;22;20461;-73
2023/11/01 20:46:37;;;;;;;10.38;6.75;;;;;;;;;;12689748;23;20028;-74
2023/11/01 20:51:33;;;;;;;13.82;6.20;;;;;;;;;;12693365;22;20485;-74
2023/11/01 20:56:34;;;;;;;10.13;5.80;;;;;;;;;;12695420;23;20497;-75
2023/11/01 21:01:30;;;;;;;9.05;5.57;;;;;;;;;;12695539;22;20020;-74
2023/11/01 21:06:27;;;;;;;9.32;5.78;;;;;;;;;;12689106;22;20103;-74
2023/11/01 21:11:23;;;;;;;13.45;5.57;;;;;;;;;;12695065;22;20084;-74
2023/11/01 21:16:19;;;;;;;7.50;5.78;;;;;;;;;;12695488;23;20583;-74
2023/11/01 21:21:16;;;;;;;6.95;6.18;;;;;;;;;;12693937;22;20028;-72
2023/11/01 21:26:12;;;;;;;12.43;6.03;;;;;;;;;;12693814;23;20028;-71
2023/11/01 21:31:09;;;;;;;5.65;5.15;;;;;;;;;;12683444;22;20046;-69
2023/11/01 21:36:06;;;;;;;10.15;6.05;;;;;;;;;;12691421;23;20028;-70
2023/11/01 21:41:02;;;;;;;7.72;5.97;;;;;;;;;;12693755;22;20504;-70
2023/11/01 21:45:59;;;;;;;13.60;6.30;;;;;;;;;;12691251;23;20051;-70
2023/11/01 21:50:59;;;;;;;12.98;6.13;;;;;;;;;;12693308;22;20120;-69
2023/11/01 21:55:57;;;;;;;8.25;5.63;;;;;;;;;;12693658;23;20047;-70
2023/11/01 22:00:57;;;;;;;7.88;5.03;;;;;;;;;;12697255;22;20070;-69
2023/11/01 22:05:54;;;;;;;5.72;5.05;;;;;;;;;;12699044;23;20024;-69
2023/11/01 22:10:50;;;;;;;7.68;4.75;;;;;;;;;;12698912;22;20031;-69
2023/11/01 22:15:46;;;;;;;7.63;5.22;;;;;;;;;;12699574;23;20306;-69
2023/11/01 22:20:43;;;;;;;8.10;5.10;;;;;;;;;;12699467;22;20020;-70
2023/11/01 22:25:40;;;;;;;11.25;5.60;;;;;;;;;;12693673;22;20491;-70
2023/11/01 22:30:40;;;;;;;8.68;4.85;;;;;;;;;;12699272;22;20078;-69
2023/11/01 22:35:42;;;;;;;8.85;5.18;;;;;;;;;;12697419;23;20465;-70
2023/11/01 22:40:41;;;;;;;6.25;4.25;;;;;;;;;;12699412;22;20020;-70
2023/11/01 22:45:38;;;;;;;8.25;4.68;;;;;;;;;;12696952;23;20016;-73
2023/11/01 22:50:35;;;;;;;7.72;5.07;;;;;;;;;;12697797;22;20020;-72
2023/11/01 22:55:32;;;;;;;7.10;4.60;;;;;;;;;;12698542;23;20020;-72
2023/11/01 23:00:37;;;;;;;7.97;4.20;;;;;;;;;;12698505;22;20070;-70
2023/11/01 23:05:33;;;;;;;5.55;4.00;;;;;;;;;;12699312;23;20501;-70
2023/11/01 23:10:32;;;;;;;7.80;4.22;;;;;;;;;;12697087;22;20417;-69
2023/11/01 23:15:29;;;;;;;5.90;4.03;;;;;;;;;;12691312;23;20078;-69
2023/11/01 23:20:25;;;;;;;5.45;4.25;;;;;;;;;;12671372;23;20031;-69
2023/11/01 23:25:29;;;;;;;5.18;4.20;;;;;;;;;;12697986;22;20370;-69
2023/11/01 23:30:40;;;;;;;7.57;4.13;;;;;;;;;;12692917;23;20024;-70
2023/11/01 23:35:44;;;;;;;6.95;4.72;;;;;;;;;;12697530;23;20020;-70
2023/11/01 23:40:43;;;;;;;7.50;4.40;;;;;;;;;;12697396;22;20024;-70
2023/11/01 23:45:40;;;;;;;8.43;4.00;;;;;;;;;;12695936;23;20028;-70
2023/11/01 23:50:41;;;;;;;6.18;4.43;;;;;;;;;;12697137;22;20026;-70
2023/11/01 23:55:40;;;;;;;6.27;4.13;;;;;;;;;;12698457;23;20024;-70
